Crane Naval Weapons Support, Indiana
Current Conditions -  °F | °C
As of 10:15 AM on Saturday 20 Dec 2014 (Local Time) from KDCY Reporting Station
Overcast Overcast  
Wind Chill: 32°   Ceiling: 1200
Heat Index: 32°   Visibility: 7mi
Dew Point: 25°   Wind: 0mph
Humidity: 76%   Direction: NA
Pressure: 30.32"   Gusts: NA
Location:  38.8381°N, 86.8142°W
Report Text: KDCY 201615Z AUTO 00000KT 7SM BKN012 OVC060 00/M04 A3032 RMK AO2 T10011038
Loading
Personal Weather Stations






























Interactive Weather Map New forecast layout! Learn more

10-Day Weather Forecast

Advertisements
Track Severe Weather on mobile